createdAt,value
2018-03-24T00:01:33.512Z,12.20
2018-03-24T00:04:00.152Z,12.57
2018-03-24T00:06:26.814Z,12.80
2018-03-24T00:08:53.507Z,12.40
2018-03-24T00:11:20.168Z,13.40
2018-03-24T00:13:46.891Z,12.27
2018-03-24T00:16:13.578Z,14.30
2018-03-24T00:18:40.282Z,13.90
2018-03-24T00:21:06.955Z,14.20
2018-03-24T00:23:33.746Z,13.43
2018-03-24T00:26:00.487Z,14.40
2018-03-24T00:28:27.132Z,15.00
2018-03-24T00:30:53.823Z,13.50
2018-03-24T00:33:20.459Z,15.03
2018-03-24T00:35:47.188Z,14.57
2018-03-24T00:38:14.017Z,14.43
2018-03-24T00:40:40.783Z,15.97
2018-03-24T00:43:07.525Z,14.20
2018-03-24T00:45:34.170Z,16.00
2018-03-24T00:48:00.816Z,14.17
2018-03-24T00:50:27.510Z,14.87
2018-03-24T00:52:54.195Z,15.17
2018-03-24T00:55:20.905Z,14.37
2018-03-24T00:57:47.614Z,15.20
2018-03-24T01:00:14.366Z,14.40
2018-03-24T01:02:41.074Z,14.50
2018-03-24T01:05:07.746Z,15.00
2018-03-24T01:07:34.444Z,14.47
2018-03-24T01:10:01.170Z,14.73
2018-03-24T01:12:27.837Z,15.13
2018-03-24T01:14:54.481Z,14.43
2018-03-24T01:17:21.503Z,14.30
2018-03-24T01:19:48.157Z,15.83
2018-03-24T01:22:15.012Z,14.50
2018-03-24T01:24:41.656Z,15.87
2018-03-24T01:27:08.351Z,15.87
2018-03-24T01:29:34.973Z,16.00
2018-03-24T01:32:01.603Z,14.80
2018-03-24T01:34:28.250Z,15.63
2018-03-24T01:36:54.872Z,16.60
2018-03-24T01:39:22.419Z,14.90
2018-03-24T01:41:49.071Z,14.97
2018-03-24T01:44:15.682Z,15.87
2018-03-24T01:46:42.318Z,16.50
2018-03-24T01:49:08.970Z,15.57
2018-03-24T01:51:36.131Z,16.37
2018-03-24T01:54:02.766Z,18.10
2018-03-24T01:56:29.401Z,17.43
2018-03-24T01:58:56.355Z,18.50
2018-03-24T02:01:23.041Z,18.97
2018-03-24T02:03:49.729Z,18.70
2018-03-24T02:06:16.367Z,19.87
2018-03-24T02:08:43.100Z,18.77
2018-03-24T02:11:09.740Z,18.17
2018-03-24T02:13:36.392Z,20.60
2018-03-24T02:16:03.076Z,18.77
2018-03-24T02:18:29.926Z,19.30
2018-03-24T02:20:57.172Z,20.63
2018-03-24T02:23:23.813Z,20.87
2018-03-24T02:25:50.460Z,22.03
2018-03-24T02:28:17.110Z,21.40
2018-03-24T02:30:43.731Z,22.40
2018-03-24T02:33:10.368Z,21.00
2018-03-24T02:35:37.304Z,21.27
2018-03-24T02:38:03.940Z,23.90
2018-03-24T02:40:30.607Z,24.83
2018-03-24T02:42:57.215Z,24.77
2018-03-24T02:45:23.859Z,24.80
2018-03-24T02:47:50.918Z,21.67
2018-03-24T02:50:17.909Z,25.13
2018-03-24T02:52:44.580Z,24.63
2018-03-24T02:55:11.220Z,25.23
2018-03-24T02:57:37.863Z,25.23
2018-03-24T03:00:04.489Z,25.17
2018-03-24T03:02:31.136Z,23.73
2018-03-24T03:04:57.782Z,26.23
2018-03-24T03:07:24.430Z,24.40
2018-03-24T03:09:51.063Z,24.13
2018-03-24T03:12:17.854Z,25.83
2018-03-24T03:14:45.135Z,25.50
2018-03-24T03:17:11.770Z,26.70
2018-03-24T03:19:38.422Z,24.83
2018-03-24T03:22:05.079Z,27.13
2018-03-24T03:24:31.701Z,26.33
2018-03-24T03:26:58.358Z,27.60
2018-03-24T03:29:24.985Z,26.50
2018-03-24T03:31:52.283Z,27.47
2018-03-24T03:34:18.921Z,27.50
2018-03-24T03:36:45.572Z,26.67
2018-03-24T03:39:12.208Z,24.90
2018-03-24T03:41:38.864Z,25.73
2018-03-24T03:44:06.372Z,26.57
2018-03-24T03:46:33.020Z,25.33
2018-03-24T03:48:59.682Z,25.40
2018-03-24T03:51:26.337Z,24.63
2018-03-24T03:53:52.963Z,25.23
2018-03-24T03:56:19.627Z,24.73
2018-03-24T03:58:47.869Z,23.90
2018-03-24T04:01:15.389Z,24.30
2018-03-24T04:03:42.077Z,26.53
2018-03-24T04:06:08.701Z,25.50
2018-03-24T04:08:35.355Z,25.30
2018-03-24T04:11:01.999Z,27.37
2018-03-24T04:13:28.646Z,25.70
2018-03-24T04:15:55.301Z,27.20
2018-03-24T04:18:21.956Z,25.47
2018-03-24T04:20:48.592Z,27.33
2018-03-24T04:23:15.647Z,25.60
2018-03-24T04:25:42.263Z,25.63
2018-03-24T04:28:08.886Z,26.00
2018-03-24T04:30:35.539Z,26.70
2018-03-24T04:33:02.169Z,26.60
2018-03-24T04:35:28.824Z,28.47
2018-03-24T04:37:55.500Z,27.27
2018-03-24T04:40:22.138Z,26.90
2018-03-24T04:42:48.789Z,27.03
2018-03-24T04:45:15.434Z,27.30
2018-03-24T04:47:42.066Z,26.13
2018-03-24T04:50:08.705Z,27.63
2018-03-24T04:52:35.419Z,27.57
2018-03-24T04:55:02.032Z,27.50
2018-03-24T04:57:28.669Z,27.00
2018-03-24T04:59:55.599Z,27.27
2018-03-24T05:02:22.247Z,27.10
2018-03-24T05:04:48.912Z,27.40
2018-03-24T05:07:15.542Z,27.60
2018-03-24T05:09:42.190Z,27.70
2018-03-24T05:12:08.866Z,27.30
2018-03-24T05:14:35.525Z,26.83
2018-03-24T05:17:02.186Z,28.83
2018-03-24T05:19:28.824Z,26.20
2018-03-24T05:21:55.507Z,28.83
2018-03-24T05:24:22.190Z,29.03
2018-03-24T05:26:48.836Z,28.67
2018-03-24T05:29:15.482Z,27.80
2018-03-24T05:31:42.120Z,28.70
2018-03-24T05:34:08.750Z,25.63
2018-03-24T05:36:35.442Z,29.27
2018-03-24T05:39:02.106Z,28.07
2018-03-24T05:41:28.732Z,28.37
2018-03-24T05:43:55.673Z,27.70
2018-03-24T05:46:22.305Z,27.40
2018-03-24T05:48:48.976Z,27.60
2018-03-24T05:51:15.995Z,28.13
2018-03-24T05:53:43.331Z,27.70
2018-03-24T05:56:09.971Z,27.83
2018-03-24T05:58:36.606Z,27.77
2018-03-24T06:01:03.249Z,28.80
2018-03-24T06:03:29.973Z,27.93
2018-03-24T06:05:56.619Z,26.87
2018-03-24T06:08:23.250Z,27.73
2018-03-24T06:10:50.134Z,27.33
2018-03-24T06:13:16.789Z,27.80
2018-03-24T06:15:43.428Z,29.30
2018-03-24T06:18:10.654Z,27.47
2018-03-24T06:20:37.291Z,25.77
2018-03-24T06:23:03.936Z,27.73
2018-03-24T06:25:30.723Z,27.90
2018-03-24T06:27:57.335Z,27.30
2018-03-24T06:30:39.019Z,25.00
2018-03-24T06:33:05.723Z,26.10
2018-03-24T06:35:32.748Z,27.30
2018-03-24T06:37:59.610Z,26.60
2018-03-24T06:40:26.319Z,25.37
2018-03-24T06:42:53.235Z,26.10
2018-03-24T06:45:19.918Z,26.47
2018-03-24T06:47:46.584Z,25.20
2018-03-24T06:50:13.366Z,24.97
2018-03-24T06:52:40.516Z,25.10
2018-03-24T06:55:07.206Z,24.67
2018-03-24T06:57:33.843Z,25.67
2018-03-24T07:00:00.584Z,25.80
2018-03-24T07:02:27.230Z,23.73
2018-03-24T07:04:53.940Z,25.90
2018-03-24T07:07:20.604Z,25.73
2018-03-24T07:09:47.240Z,23.90
2018-03-24T07:12:13.932Z,24.67
2018-03-24T07:14:40.637Z,25.70
2018-03-24T07:17:07.273Z,25.70
2018-03-24T07:19:33.924Z,24.63
2018-03-24T07:22:00.594Z,24.83
2018-03-24T07:24:27.253Z,24.83
2018-03-24T07:26:53.959Z,25.33
2018-03-24T07:29:20.642Z,24.63
2018-03-24T07:31:47.517Z,25.70
2018-03-24T07:34:14.483Z,25.53
2018-03-24T07:36:41.171Z,26.37
2018-03-24T07:39:07.861Z,24.70
2018-03-24T07:41:34.664Z,24.93
2018-03-24T07:44:01.445Z,24.53
2018-03-24T07:46:28.195Z,25.13
2018-03-24T07:48:54.895Z,26.17
2018-03-24T07:51:21.530Z,25.67
2018-03-24T07:53:48.267Z,25.87
2018-03-24T07:56:15.154Z,25.00
2018-03-24T07:58:42.205Z,27.80
2018-03-24T08:01:09.272Z,26.67
2018-03-24T08:03:36.260Z,26.97
2018-03-24T08:06:03.048Z,26.90
2018-03-24T08:08:29.701Z,25.00
2018-03-24T08:10:56.458Z,26.67
2018-03-24T08:13:24.634Z,26.53
2018-03-24T08:15:51.518Z,26.40
2018-03-24T08:18:18.418Z,25.90
2018-03-24T08:20:45.901Z,26.77
2018-03-24T08:23:12.636Z,26.30
2018-03-24T08:25:39.508Z,26.20
2018-03-24T08:28:06.175Z,26.20
2018-03-24T08:30:32.870Z,25.80
2018-03-24T08:33:00.222Z,26.30
2018-03-24T08:35:29.013Z,25.97
2018-03-24T08:37:57.055Z,25.63
2018-03-24T08:40:24.333Z,25.33
2018-03-24T08:42:51.010Z,25.10
2018-03-24T08:45:17.717Z,25.47
2018-03-24T08:47:44.423Z,24.53
2018-03-24T08:50:11.203Z,22.67
2018-03-24T08:52:37.869Z,22.90
2018-03-24T08:55:04.528Z,24.27
2018-03-24T08:57:31.173Z,23.97
2018-03-24T08:59:57.946Z,22.40
2018-03-24T09:02:24.638Z,23.37
2018-03-24T09:04:51.451Z,24.30
2018-03-24T09:07:18.172Z,21.87
2018-03-24T09:09:44.851Z,23.23
2018-03-24T09:12:11.582Z,22.37
2018-03-24T09:14:38.681Z,23.23
2018-03-24T09:17:05.526Z,23.03
2018-03-24T09:19:32.200Z,22.67
2018-03-24T09:21:58.878Z,23.03
2018-03-24T09:24:26.302Z,23.43
2018-03-24T09:26:53.039Z,23.13
2018-03-24T09:29:19.808Z,21.80
2018-03-24T09:31:46.574Z,22.10
2018-03-24T09:34:13.395Z,22.90
2018-03-24T09:36:40.487Z,23.40
2018-03-24T09:39:07.420Z,22.00
2018-03-24T09:41:34.438Z,21.13
2018-03-24T09:44:01.093Z,21.03
2018-03-24T09:46:27.757Z,22.47
2018-03-24T09:48:54.656Z,20.30
2018-03-24T09:51:21.343Z,20.07
2018-03-24T09:53:48.192Z,20.17
2018-03-24T09:56:15.311Z,19.77
2018-03-24T09:58:42.039Z,20.17
2018-03-24T10:01:09.008Z,21.03
2018-03-24T10:03:35.644Z,20.37
2018-03-24T10:06:02.410Z,18.80
2018-03-24T10:08:29.112Z,19.70
2018-03-24T10:10:56.177Z,20.10
2018-03-24T10:13:24.347Z,20.17
2018-03-24T10:15:51.081Z,21.70
2018-03-24T10:18:17.769Z,19.80
2018-03-24T10:21:00.307Z,18.57
2018-03-24T10:23:30.997Z,17.80
2018-03-24T10:25:57.671Z,18.50
2018-03-24T10:28:24.395Z,16.83
2018-03-24T10:30:51.123Z,16.93
2018-03-24T10:33:17.830Z,17.77
2018-03-24T10:35:44.449Z,19.10
2018-03-24T10:38:11.123Z,19.93
2018-03-24T10:40:37.992Z,17.70
2018-03-24T10:43:10.378Z,18.37
2018-03-24T10:45:37.064Z,18.07
2018-03-24T10:48:03.738Z,18.60
2018-03-24T10:50:30.379Z,19.63
2018-03-24T10:52:57.008Z,20.07
2018-03-24T10:55:23.782Z,20.47
2018-03-24T10:57:50.446Z,18.80
2018-03-24T11:00:17.120Z,19.43
2018-03-24T11:02:43.809Z,18.73
2018-03-24T11:05:10.511Z,20.57
2018-03-24T11:07:37.209Z,20.30
2018-03-24T11:10:03.840Z,17.50
2018-03-24T11:12:30.701Z,16.57
2018-03-24T11:14:59.123Z,17.87
2018-03-24T11:17:25.954Z,18.73
2018-03-24T11:19:52.705Z,18.40
2018-03-24T11:22:19.510Z,17.80
2018-03-24T11:24:46.198Z,17.10
2018-03-24T11:27:13.751Z,16.83
2018-03-24T11:29:50.944Z,16.37
2018-03-24T11:32:17.932Z,16.23
2018-03-24T11:34:44.615Z,17.20
2018-03-24T11:37:11.261Z,16.57
2018-03-24T11:39:37.979Z,14.93
2018-03-24T11:42:04.620Z,14.90
2018-03-24T11:44:31.778Z,15.13
2018-03-24T11:46:58.667Z,14.20
2018-03-24T11:49:25.502Z,14.90
2018-03-24T11:51:52.202Z,16.80
2018-03-24T11:54:39.918Z,14.77
2018-03-24T11:57:06.622Z,15.50
2018-03-24T11:59:33.283Z,15.40
2018-03-24T12:02:00.817Z,16.03
2018-03-24T12:04:28.289Z,16.20
2018-03-24T12:06:55.129Z,16.57
2018-03-24T12:09:21.804Z,16.23
2018-03-24T12:11:48.560Z,15.73
2018-03-24T12:14:15.328Z,17.20
2018-03-24T12:16:41.970Z,16.53
2018-03-24T12:19:08.650Z,16.53
2018-03-24T12:21:35.374Z,15.37
2018-03-24T12:24:02.014Z,15.40
2018-03-24T12:26:28.709Z,15.87
2018-03-24T12:28:55.423Z,14.33
2018-03-24T12:31:22.244Z,14.40
2018-03-24T12:33:48.943Z,13.47
2018-03-24T12:36:15.698Z,13.10
2018-03-24T12:38:42.420Z,16.73
2018-03-24T12:41:09.111Z,16.10
2018-03-24T12:43:35.788Z,16.10
2018-03-24T12:46:02.505Z,16.63
2018-03-24T12:48:29.210Z,16.13
2018-03-24T12:50:55.866Z,16.10
2018-03-24T12:53:22.678Z,15.00
2018-03-24T12:55:49.324Z,16.27
2018-03-24T12:58:16.008Z,14.83
2018-03-24T13:00:42.715Z,16.03
2018-03-24T13:03:09.394Z,14.60
2018-03-24T13:05:36.040Z,13.90
2018-03-24T13:08:02.731Z,14.60
2018-03-24T13:10:29.542Z,15.97
2018-03-24T13:12:56.192Z,15.07
2018-03-24T13:15:22.850Z,14.17
2018-03-24T13:17:49.703Z,15.03
2018-03-24T13:20:16.442Z,13.17
2018-03-24T13:22:43.102Z,14.30
2018-03-24T13:25:09.782Z,14.53
2018-03-24T13:27:36.742Z,12.93
2018-03-24T13:30:03.437Z,15.90
2018-03-24T13:32:30.298Z,12.73
2018-03-24T13:34:57.069Z,15.10
2018-03-24T13:37:23.707Z,13.57
2018-03-24T13:39:50.479Z,13.73
2018-03-24T13:42:17.153Z,13.57
2018-03-24T13:44:43.808Z,13.57
2018-03-24T13:47:10.544Z,14.03
2018-03-24T13:49:37.192Z,13.90
2018-03-24T13:52:03.995Z,14.17
2018-03-24T13:54:30.784Z,13.83
2018-03-24T13:56:57.439Z,12.33
2018-03-24T13:59:24.095Z,12.90
2018-03-24T14:01:51.200Z,13.00
2018-03-24T14:04:17.881Z,12.80
2018-03-24T14:06:44.514Z,11.97
2018-03-24T14:09:11.564Z,12.73
2018-03-24T14:11:38.242Z,12.23
2018-03-24T14:14:04.894Z,12.40
2018-03-24T14:16:31.538Z,11.97
2018-03-24T14:18:58.279Z,12.90
2018-03-24T14:21:24.998Z,11.20
2018-03-24T14:23:51.689Z,12.40
2018-03-24T14:26:18.325Z,13.07
2018-03-24T14:28:45.003Z,13.67
2018-03-24T14:31:11.631Z,12.50
2018-03-24T14:33:38.344Z,12.23
2018-03-24T14:36:05.026Z,12.23
2018-03-24T14:38:31.695Z,12.93
2018-03-24T14:40:58.477Z,13.20
2018-03-24T14:43:25.451Z,12.03
2018-03-24T14:45:52.102Z,11.77
2018-03-24T14:48:18.892Z,12.40
2018-03-24T14:50:45.589Z,10.73
2018-03-24T14:53:12.278Z,12.60
2018-03-24T14:55:39.116Z,12.13
2018-03-24T14:58:05.721Z,12.30
2018-03-24T15:00:32.342Z,12.17
2018-03-24T15:02:59.002Z,11.67
2018-03-24T15:05:25.669Z,11.10
2018-03-24T15:07:52.306Z,10.57
2018-03-24T15:10:19.027Z,10.23
2018-03-24T15:12:45.672Z,12.03
2018-03-24T15:15:12.476Z,11.23
2018-03-24T15:17:39.402Z,11.37
2018-03-24T15:20:06.082Z,12.43
2018-03-24T15:22:32.840Z,11.17
2018-03-24T15:24:59.839Z,11.27
2018-03-24T15:27:26.523Z,10.90
2018-03-24T15:29:59.195Z,10.40
2018-03-24T15:32:31.647Z,11.20
2018-03-24T15:35:04.332Z,10.50
2018-03-24T15:37:31.183Z,11.13
2018-03-24T15:39:57.936Z,11.57
2018-03-24T15:42:24.650Z,10.87
2018-03-24T15:44:51.304Z,10.70
2018-03-24T15:47:18.000Z,9.90
2018-03-24T15:49:44.696Z,11.63
2018-03-24T15:52:11.339Z,10.40
2018-03-24T15:54:38.003Z,11.60
2018-03-24T15:57:04.710Z,11.57
2018-03-24T15:59:31.539Z,10.87
2018-03-24T16:01:58.257Z,11.70
2018-03-24T16:04:24.923Z,11.20
2018-03-24T16:06:51.562Z,11.50
2018-03-24T16:09:18.251Z,12.60
2018-03-24T16:11:44.927Z,11.80
2018-03-24T16:14:11.597Z,11.47
2018-03-24T16:16:38.426Z,11.57
2018-03-24T16:19:05.121Z,12.30
2018-03-24T16:21:31.758Z,12.40
2018-03-24T16:23:58.441Z,12.40
2018-03-24T16:26:25.069Z,11.93
2018-03-24T16:28:51.746Z,11.40
2018-03-24T16:31:18.405Z,11.90
2018-03-24T16:33:45.100Z,11.90
2018-03-24T16:36:11.844Z,11.37
2018-03-24T16:38:38.561Z,10.90
2018-03-24T16:41:05.190Z,10.80
2018-03-24T16:43:32.021Z,11.40
2018-03-24T16:45:58.893Z,11.90
2018-03-24T16:48:25.673Z,11.90
2018-03-24T16:50:52.990Z,11.80
2018-03-24T16:53:19.636Z,12.47
2018-03-24T16:55:46.331Z,11.43
2018-03-24T16:58:13.029Z,12.10
2018-03-24T17:00:39.710Z,12.40
2018-03-24T17:03:06.878Z,11.37
2018-03-24T17:05:33.571Z,11.07
2018-03-24T17:08:00.222Z,11.67
2018-03-24T17:10:27.039Z,11.20
2018-03-24T17:12:53.734Z,11.47
2018-03-24T17:15:20.471Z,11.10
2018-03-24T17:17:47.175Z,11.40
2018-03-24T17:20:13.808Z,11.43
2018-03-24T17:22:40.474Z,11.30
2018-03-24T17:25:07.148Z,11.53
2018-03-24T17:27:34.736Z,11.90
2018-03-24T17:30:01.568Z,12.03
2018-03-24T17:32:28.211Z,11.87
2018-03-24T17:34:55.142Z,11.07
2018-03-24T17:37:21.838Z,11.27
2018-03-24T17:39:48.499Z,12.43
2018-03-24T17:42:15.196Z,11.77
2018-03-24T17:44:41.874Z,13.20
2018-03-24T17:47:08.540Z,12.40
2018-03-24T17:49:35.402Z,11.70
2018-03-24T17:52:02.181Z,12.50
2018-03-24T17:54:28.851Z,12.27
2018-03-24T17:56:55.538Z,10.97
2018-03-24T17:59:22.217Z,11.73
2018-03-24T18:01:48.850Z,11.97
2018-03-24T18:04:16.606Z,12.30
2018-03-24T18:06:43.315Z,11.30
2018-03-24T18:09:10.016Z,12.67
2018-03-24T18:11:36.653Z,11.43
2018-03-24T18:14:03.330Z,12.13
2018-03-24T18:16:30.242Z,13.37
2018-03-24T18:18:57.078Z,11.70
2018-03-24T18:21:23.884Z,13.10
2018-03-24T18:23:50.597Z,11.30
2018-03-24T18:26:17.271Z,11.17
2018-03-24T18:28:43.967Z,13.20
2018-03-24T18:31:10.619Z,13.53
2018-03-24T18:33:37.334Z,13.60
2018-03-24T18:36:03.993Z,12.30
2018-03-24T18:38:30.829Z,12.97
2018-03-24T18:40:57.558Z,13.00
2018-03-24T18:43:24.235Z,14.40
2018-03-24T18:45:50.907Z,13.80
2018-03-24T18:48:17.531Z,13.30
2018-03-24T18:50:44.523Z,14.00
2018-03-24T18:53:11.277Z,13.77
2018-03-24T18:55:38.242Z,13.97
2018-03-24T18:58:05.992Z,13.30
2018-03-24T19:00:32.672Z,13.57
2018-03-24T19:02:59.933Z,13.73
2018-03-24T19:05:26.658Z,13.70
2018-03-24T19:07:56.016Z,13.53
2018-03-24T19:10:24.305Z,13.67
2018-03-24T19:12:51.872Z,15.30
2018-03-24T19:15:18.849Z,13.30
2018-03-24T19:17:45.794Z,13.40
2018-03-24T19:20:12.758Z,13.30
2018-03-24T19:22:40.500Z,15.20
2018-03-24T19:25:07.282Z,17.10
2018-03-24T19:27:33.968Z,16.43
2018-03-24T19:30:00.649Z,16.60
2018-03-24T19:32:27.305Z,16.20
2018-03-24T19:34:54.024Z,16.37
2018-03-24T19:37:22.170Z,16.27
2018-03-24T19:39:50.014Z,18.23
2018-03-24T19:42:16.948Z,15.97
2018-03-24T19:44:43.707Z,15.70
2018-03-24T19:47:10.479Z,16.03
2018-03-24T19:49:37.901Z,15.30
2018-03-24T19:52:04.728Z,15.30
2018-03-24T19:54:31.525Z,15.30
2018-03-24T19:56:58.193Z,15.60
2018-03-24T19:59:24.861Z,15.77
2018-03-24T20:01:51.766Z,16.57
2018-03-24T20:04:18.628Z,15.30
2018-03-24T20:06:45.959Z,16.17
2018-03-24T20:09:13.091Z,17.20
2018-03-24T20:11:39.907Z,16.53
2018-03-24T20:14:06.615Z,15.70
2018-03-24T20:16:33.368Z,15.83
2018-03-24T20:19:00.058Z,16.53
2018-03-24T20:21:26.817Z,15.87
2018-03-24T20:23:53.666Z,15.60
2018-03-24T20:26:20.607Z,17.17
2018-03-24T20:28:47.423Z,16.43
2018-03-24T20:31:14.088Z,16.27
2018-03-24T20:33:40.776Z,16.23
2018-03-24T20:36:07.565Z,17.07
2018-03-24T20:38:34.782Z,18.23
2018-03-24T20:41:01.444Z,17.10
2018-03-24T20:43:28.183Z,16.07
2018-03-24T20:45:55.438Z,17.57
2018-03-24T20:48:22.176Z,16.10
2018-03-24T20:50:49.167Z,16.93
2018-03-24T20:53:15.858Z,16.67
2018-03-24T20:55:43.033Z,17.37
2018-03-24T20:58:09.797Z,17.00
2018-03-24T21:00:36.889Z,18.00
2018-03-24T21:03:03.611Z,17.53
2018-03-24T21:05:30.288Z,17.03
2018-03-24T21:07:59.025Z,18.27
2018-03-24T21:10:25.960Z,18.60
2018-03-24T21:12:57.973Z,17.43
2018-03-24T21:15:24.682Z,17.97
2018-03-24T21:17:51.385Z,18.63
2018-03-24T21:20:18.056Z,18.70
2018-03-24T21:22:44.757Z,18.20
2018-03-24T21:25:11.415Z,19.00
2018-03-24T21:27:38.108Z,19.77
2018-03-24T21:30:04.872Z,17.90
2018-03-24T21:32:31.590Z,19.30
2018-03-24T21:34:58.384Z,19.33
2018-03-24T21:37:25.072Z,18.27
2018-03-24T21:39:51.903Z,17.83
2018-03-24T21:42:18.525Z,19.40
2018-03-24T21:44:45.298Z,17.87
2018-03-24T21:47:11.970Z,19.30
2018-03-24T21:49:38.907Z,18.00
2018-03-24T21:52:05.584Z,17.20
2018-03-24T21:54:32.950Z,19.33
2018-03-24T21:57:00.551Z,20.17
2018-03-24T21:59:27.179Z,19.30
2018-03-24T22:01:53.859Z,18.83
2018-03-24T22:04:20.560Z,18.17
2018-03-24T22:06:47.224Z,19.57
2018-03-24T22:09:13.866Z,18.73
2018-03-24T22:11:40.510Z,17.77
2018-03-24T22:14:07.233Z,17.73
2018-03-24T22:16:33.983Z,18.07
2018-03-24T22:19:00.653Z,17.77
2018-03-24T22:21:27.660Z,18.73
2018-03-24T22:23:54.344Z,19.37
2018-03-24T22:26:21.059Z,17.73
2018-03-24T22:28:47.827Z,18.57
2018-03-24T22:31:14.553Z,18.53
2018-03-24T22:33:41.205Z,18.40
2018-03-24T22:36:10.563Z,18.80
2018-03-24T22:38:37.232Z,17.87
2018-03-24T22:41:03.876Z,18.13
2018-03-24T22:43:30.545Z,17.60
2018-03-24T22:45:57.208Z,17.60
2018-03-24T22:48:23.846Z,17.47
2018-03-24T22:50:50.513Z,18.00
2018-03-24T22:53:17.257Z,19.60
2018-03-24T22:55:43.880Z,18.00
2018-03-24T22:58:10.528Z,18.60
2018-03-24T23:00:37.215Z,19.50
2018-03-24T23:03:03.835Z,19.00
2018-03-24T23:05:30.469Z,19.60
2018-03-24T23:07:57.241Z,17.87
2018-03-24T23:10:23.887Z,19.47
2018-03-24T23:12:50.523Z,19.37
2018-03-24T23:15:17.725Z,19.97
2018-03-24T23:17:44.392Z,19.60
2018-03-24T23:20:11.161Z,18.73
2018-03-24T23:22:37.809Z,19.10
2018-03-24T23:25:04.448Z,19.77
2018-03-24T23:27:31.150Z,19.30
2018-03-24T23:29:57.837Z,19.27
2018-03-24T23:32:24.489Z,18.90
2018-03-24T23:34:51.140Z,20.13
2018-03-24T23:37:17.799Z,20.20
2018-03-24T23:39:44.454Z,19.53
2018-03-24T23:42:11.102Z,18.33
2018-03-24T23:44:37.744Z,18.47
2018-03-24T23:47:04.424Z,19.60
2018-03-24T23:49:31.110Z,18.13
2018-03-24T23:51:57.782Z,20.13
2018-03-24T23:54:24.431Z,19.50
2018-03-24T23:56:51.050Z,19.83
2018-03-24T23:59:17.728Z,20.43
